New Boston, Illinois
Current Conditions -  °F | °C
As of 1:55 AM on Monday 24 Nov 2014 (Local Time) from KMUT Reporting Station
Unknown Precip Unknown Precip  
Wind Chill: 26°   Ceiling: 1000
Heat Index: 37°   Visibility: 2.5mi
Dew Point: 36°   Wind: 25mph
Humidity: 93%   Direction: 310°NW
Pressure: 29.22"   Gusts: 32mph
Location:  41.17°N, 91°W
Report Text: KMUT 240755Z AUTO 31022G28KT 2 1/2SM -UP OVC010 03/02 A2922 RMK AO2
Loading
Personal Weather Stations






























Interactive Weather Map New forecast layout! Learn more

10-Day Weather Forecast

Advertisements
Track Severe Weather on mobile